createdAt,value
2022-12-17T00:00:03.718Z,92.69
2022-12-17T00:01:03.764Z,92.79
2022-12-17T00:02:03.600Z,92.69
2022-12-17T00:03:03.701Z,92.58
2022-12-17T00:04:03.776Z,92.05
2022-12-17T00:05:03.592Z,91.95
2022-12-17T00:06:03.575Z,91.95
2022-12-17T00:07:03.568Z,92.27
2022-12-17T00:08:03.551Z,92.37
2022-12-17T00:09:03.560Z,91.95
2022-12-17T00:10:04.280Z,91.74
2022-12-17T00:11:03.536Z,91.85
2022-12-17T00:12:03.553Z,91.74
2022-12-17T00:13:03.529Z,91.42
2022-12-17T00:14:03.508Z,91.85
2022-12-17T00:15:03.515Z,91.85
2022-12-17T00:16:03.535Z,91.95
2022-12-17T00:17:03.493Z,91.63
2022-12-17T00:18:03.484Z,91.80
2022-12-17T00:19:03.471Z,91.95
2022-12-17T00:20:03.473Z,91.06
2022-12-17T00:21:03.474Z,91.28
2022-12-17T00:22:03.457Z,91.28
2022-12-17T00:23:04.212Z,91.06
2022-12-17T00:24:05.219Z,91.06
2022-12-17T00:25:03.427Z,91.00
2022-12-17T00:26:03.434Z,91.17
2022-12-17T00:27:46.109Z,90.64
2022-12-17T00:28:46.104Z,91.06
2022-12-17T00:29:46.132Z,91.06
2022-12-17T00:30:46.099Z,91.17
2022-12-17T00:31:46.144Z,90.85
2022-12-17T00:32:46.085Z,91.17
2022-12-17T00:33:46.071Z,91.38
2022-12-17T00:34:47.161Z,91.21
2022-12-17T00:35:47.970Z,90.96
2022-12-17T00:36:47.160Z,91.11
2022-12-17T00:37:47.216Z,91.17
2022-12-17T00:38:47.186Z,91.17
2022-12-17T00:39:47.120Z,91.06
2022-12-17T00:40:47.117Z,90.85
2022-12-17T00:41:47.132Z,91.06
2022-12-17T00:42:47.097Z,90.75
2022-12-17T00:43:47.095Z,90.54
2022-12-17T00:44:47.077Z,90.64
2022-12-17T00:45:47.124Z,90.60
2022-12-17T00:46:47.954Z,90.75
2022-12-17T00:47:47.076Z,90.54
2022-12-17T00:48:47.052Z,90.64
2022-12-17T00:49:47.036Z,90.85
2022-12-17T00:50:47.035Z,90.96
2022-12-17T00:51:47.022Z,90.75
2022-12-17T00:52:47.026Z,90.85
2022-12-17T00:53:47.029Z,90.85
2022-12-17T00:54:47.010Z,91.06
2022-12-17T00:55:46.992Z,91.17
2022-12-17T00:56:46.994Z,91.06
2022-12-17T00:57:46.985Z,91.06
2022-12-17T00:58:46.972Z,91.06
2022-12-17T00:59:46.975Z,91.06
2022-12-17T01:00:47.013Z,91.06
2022-12-17T01:01:47.126Z,91.17
2022-12-17T01:02:47.131Z,90.96
2022-12-17T01:03:46.936Z,91.06
2022-12-17T01:04:46.935Z,91.06
2022-12-17T01:05:46.921Z,90.85
2022-12-17T01:06:46.918Z,90.75
2022-12-17T01:07:46.912Z,91.11
2022-12-17T01:08:46.911Z,91.31
2022-12-17T01:09:46.893Z,91.53
2022-12-17T01:10:46.898Z,91.59
2022-12-17T01:11:46.880Z,91.31
2022-12-17T01:12:46.867Z,90.96
2022-12-17T01:13:46.875Z,90.75
2022-12-17T01:14:46.860Z,90.85
2022-12-17T01:15:46.861Z,90.85
2022-12-17T01:16:46.955Z,90.85
2022-12-17T01:17:46.836Z,90.85
2022-12-17T01:18:46.845Z,91.00
2022-12-17T01:19:46.821Z,91.21
2022-12-17T01:20:46.814Z,91.31
2022-12-17T01:21:46.818Z,91.21
2022-12-17T01:22:46.794Z,91.31
2022-12-17T01:23:46.800Z,91.31
2022-12-17T01:24:46.778Z,91.21
2022-12-17T01:25:46.774Z,91.36
2022-12-17T01:26:46.787Z,91.67
2022-12-17T01:27:46.763Z,91.46
2022-12-17T01:28:46.752Z,92.52
2022-12-17T01:29:46.740Z,92.20
2022-12-17T01:30:46.736Z,92.20
2022-12-17T01:31:46.778Z,92.41
2022-12-17T01:32:46.717Z,92.20
2022-12-17T01:33:46.725Z,92.20
2022-12-17T01:34:46.708Z,92.31
2022-12-17T01:35:46.692Z,92.20
2022-12-17T01:36:46.684Z,92.52
2022-12-17T01:37:46.681Z,92.20
2022-12-17T01:38:46.685Z,92.31
2022-12-17T01:39:46.657Z,92.16
2022-12-17T01:40:47.663Z,91.53
2022-12-17T01:41:46.657Z,91.99
2022-12-17T01:42:46.632Z,91.74
2022-12-17T01:43:46.640Z,91.74
2022-12-17T01:44:46.633Z,91.74
2022-12-17T01:45:46.668Z,91.95
2022-12-17T01:46:46.606Z,91.00
2022-12-17T01:47:46.605Z,91.21
2022-12-17T01:48:46.596Z,91.11
2022-12-17T01:49:46.595Z,90.79
2022-12-17T01:50:46.609Z,90.79
2022-12-17T01:51:46.586Z,91.00
2022-12-17T01:52:46.566Z,91.31
2022-12-17T01:53:46.562Z,90.89
2022-12-17T01:54:46.591Z,91.00
2022-12-17T01:55:46.537Z,91.11
2022-12-17T01:56:46.539Z,90.79
2022-12-17T01:57:46.601Z,91.11
2022-12-17T01:58:46.523Z,90.58
2022-12-17T01:59:46.510Z,90.79
2022-12-17T02:00:46.571Z,90.79
2022-12-17T02:01:46.728Z,90.89
2022-12-17T02:02:46.566Z,90.79
2022-12-17T02:03:46.485Z,90.58
2022-12-17T02:04:46.488Z,90.58
2022-12-17T02:05:46.470Z,90.79
2022-12-17T02:06:46.454Z,90.89
2022-12-17T02:07:46.514Z,90.79
2022-12-17T02:08:46.440Z,90.69
2022-12-17T02:09:46.462Z,90.79
2022-12-17T02:10:46.422Z,90.26
2022-12-17T02:11:46.474Z,90.89
2022-12-17T02:12:46.411Z,90.79
2022-12-17T02:13:46.417Z,90.79
2022-12-17T02:14:46.403Z,90.83
2022-12-17T02:15:46.397Z,90.83
2022-12-17T02:16:46.461Z,90.83
2022-12-17T02:17:46.377Z,90.72
2022-12-17T02:18:46.366Z,90.94
2022-12-17T02:19:46.378Z,90.72
2022-12-17T02:20:46.352Z,90.94
2022-12-17T02:21:46.359Z,90.94
2022-12-17T02:22:46.342Z,91.14
2022-12-17T02:23:46.343Z,90.98
2022-12-17T02:24:46.329Z,90.98
2022-12-17T02:25:46.310Z,90.94
2022-12-17T02:26:46.318Z,91.14
2022-12-17T02:27:46.314Z,90.77
2022-12-17T02:28:46.286Z,90.62
2022-12-17T02:29:46.277Z,91.04
2022-12-17T02:30:46.273Z,90.83
2022-12-17T02:31:46.342Z,90.72
2022-12-17T02:32:46.308Z,90.62
2022-12-17T02:33:46.983Z,90.83
2022-12-17T02:34:46.258Z,90.72
2022-12-17T02:35:46.232Z,90.62
2022-12-17T02:36:46.243Z,90.41
2022-12-17T02:37:46.226Z,89.98
2022-12-17T02:38:46.209Z,89.98
2022-12-17T02:39:46.199Z,89.92
2022-12-17T02:40:46.192Z,90.34
2022-12-17T02:41:46.196Z,90.77
2022-12-17T02:42:46.178Z,90.94
2022-12-17T02:43:46.166Z,90.87
2022-12-17T02:44:46.165Z,90.77
2022-12-17T02:45:46.241Z,91.30
2022-12-17T02:46:46.151Z,91.30
2022-12-17T02:47:46.148Z,91.08
2022-12-17T02:48:46.129Z,91.04
2022-12-17T02:49:46.119Z,90.94
2022-12-17T02:50:46.117Z,90.83
2022-12-17T02:51:46.214Z,90.83
2022-12-17T02:52:46.099Z,90.94
2022-12-17T02:53:46.104Z,90.62
2022-12-17T02:54:46.082Z,90.83
2022-12-17T02:55:46.073Z,90.94
2022-12-17T02:56:46.071Z,90.94
2022-12-17T02:57:49.572Z,90.52
2022-12-17T02:58:48.062Z,89.88
2022-12-17T02:59:46.046Z,89.63
2022-12-17T03:00:46.089Z,89.73
2022-12-17T03:01:46.167Z,89.67
2022-12-17T03:02:46.146Z,89.77
2022-12-17T03:03:50.058Z,89.67
2022-12-17T03:04:47.012Z,89.98
2022-12-17T03:05:46.239Z,89.88
2022-12-17T03:06:45.998Z,89.88
2022-12-17T03:07:45.990Z,89.77
2022-12-17T03:08:45.988Z,89.63
2022-12-17T03:09:45.974Z,89.67
2022-12-17T03:10:45.963Z,89.84
2022-12-17T03:11:46.944Z,89.63
2022-12-17T03:12:45.954Z,89.56
2022-12-17T03:13:45.952Z,89.94
2022-12-17T03:14:45.943Z,89.67
2022-12-17T03:15:45.924Z,89.73
2022-12-17T03:16:46.599Z,89.88
2022-12-17T03:17:45.931Z,89.84
2022-12-17T03:18:45.926Z,89.73
2022-12-17T03:19:45.916Z,89.84
2022-12-17T03:20:45.893Z,89.67
2022-12-17T03:21:45.887Z,89.42
2022-12-17T03:22:45.875Z,89.63
2022-12-17T03:23:45.901Z,89.10
2022-12-17T03:24:45.861Z,89.42
2022-12-17T03:25:45.854Z,89.42
2022-12-17T03:26:45.849Z,88.89
2022-12-17T03:27:45.865Z,89.14
2022-12-17T03:28:46.823Z,89.56
2022-12-17T03:29:45.823Z,90.09
2022-12-17T03:30:49.187Z,90.41
2022-12-17T03:31:46.807Z,90.87
2022-12-17T03:32:45.803Z,90.72
2022-12-17T03:33:45.794Z,90.72
2022-12-17T03:34:45.784Z,90.83
2022-12-17T03:35:45.799Z,90.41
2022-12-17T03:36:45.778Z,90.09
2022-12-17T03:37:45.758Z,90.09
2022-12-17T03:38:45.752Z,90.20
2022-12-17T03:39:45.781Z,89.88
2022-12-17T03:40:45.736Z,89.56
2022-12-17T03:41:45.735Z,89.88
2022-12-17T03:42:45.730Z,90.30
2022-12-17T03:43:45.716Z,89.88
2022-12-17T03:44:45.703Z,90.94
2022-12-17T03:45:45.736Z,91.04
2022-12-17T03:46:45.693Z,90.62
2022-12-17T03:47:45.709Z,90.94
2022-12-17T03:48:46.488Z,90.30
2022-12-17T03:49:45.675Z,90.30
2022-12-17T03:50:45.664Z,89.88
2022-12-17T03:51:45.656Z,90.20
2022-12-17T03:52:45.662Z,90.30
2022-12-17T03:53:45.641Z,90.09
2022-12-17T03:54:47.563Z,90.94
2022-12-17T03:55:45.629Z,90.83
2022-12-17T03:56:45.625Z,90.72
2022-12-17T03:57:45.614Z,90.94
2022-12-17T03:58:46.492Z,90.77
2022-12-17T03:59:45.595Z,90.72
2022-12-17T04:00:45.584Z,90.72
2022-12-17T04:01:45.711Z,90.72
2022-12-17T04:02:45.827Z,90.72
2022-12-17T04:03:45.674Z,90.05
2022-12-17T04:04:45.565Z,89.77
2022-12-17T04:05:45.546Z,89.73
2022-12-17T04:06:45.537Z,89.77
2022-12-17T04:07:45.527Z,89.73
2022-12-17T04:08:45.524Z,89.31
2022-12-17T04:09:45.513Z,89.63
2022-12-17T04:10:45.505Z,89.52
2022-12-17T04:11:45.516Z,89.31
2022-12-17T04:12:46.000Z,89.00
2022-12-17T04:13:45.844Z,89.63
2022-12-17T04:14:45.472Z,89.46
2022-12-17T04:15:45.557Z,89.84
2022-12-17T04:16:45.467Z,90.09
2022-12-17T04:17:45.452Z,89.98
2022-12-17T04:18:45.451Z,90.41
2022-12-17T04:19:45.432Z,90.72
2022-12-17T04:20:45.431Z,90.09
2022-12-17T04:21:45.437Z,90.83
2022-12-17T04:22:45.997Z,90.94
2022-12-17T04:23:45.408Z,90.72
2022-12-17T04:24:45.408Z,90.83
2022-12-17T04:25:45.403Z,90.94
2022-12-17T04:26:45.394Z,90.83
2022-12-17T04:27:45.384Z,90.79
2022-12-17T04:28:45.379Z,90.26
2022-12-17T04:30:51.981Z,89.73
2022-12-17T04:31:51.936Z,89.84
2022-12-17T04:32:51.926Z,90.37
2022-12-17T04:33:51.917Z,90.16
2022-12-17T04:34:51.906Z,89.69
2022-12-17T04:35:51.907Z,89.48
2022-12-17T04:36:52.043Z,89.79
2022-12-17T04:37:51.890Z,89.69
2022-12-17T04:38:51.883Z,89.79
2022-12-17T04:39:51.864Z,89.31
2022-12-17T04:40:51.858Z,89.17
2022-12-17T04:41:51.865Z,89.27
2022-12-17T04:42:51.846Z,89.42
2022-12-17T04:43:55.048Z,89.31
2022-12-17T04:44:53.920Z,88.89
2022-12-17T04:45:52.946Z,89.52
2022-12-17T04:46:52.918Z,89.20
2022-12-17T04:47:53.503Z,89.20
2022-12-17T04:48:53.577Z,89.84
2022-12-17T04:49:52.887Z,89.63
2022-12-17T04:50:52.876Z,90.37
2022-12-17T04:51:52.871Z,90.79
2022-12-17T04:52:52.909Z,90.79
2022-12-17T04:53:52.857Z,90.58
2022-12-17T04:54:52.850Z,90.79
2022-12-17T04:55:52.846Z,90.79
2022-12-17T04:56:52.832Z,90.79
2022-12-17T04:57:52.836Z,91.00
2022-12-17T04:58:52.813Z,90.26
2022-12-17T04:59:52.812Z,90.79
2022-12-17T05:00:52.802Z,90.79
2022-12-17T05:01:52.871Z,90.69
2022-12-17T05:02:53.037Z,90.58
2022-12-17T05:03:52.806Z,90.58
2022-12-17T05:04:53.588Z,90.79
2022-12-17T05:05:52.766Z,90.58
2022-12-17T05:06:52.756Z,90.69
2022-12-17T05:07:52.755Z,91.00
2022-12-17T05:08:52.747Z,93.07
2022-12-17T05:09:52.732Z,94.12
2022-12-17T05:10:52.737Z,93.60
2022-12-17T05:11:52.725Z,94.02
2022-12-17T05:12:52.730Z,93.28
2022-12-17T05:13:52.741Z,92.12
2022-12-17T05:14:52.696Z,91.38
2022-12-17T05:15:53.517Z,90.81
2022-12-17T05:16:53.680Z,91.17
2022-12-17T05:17:52.685Z,91.91
2022-12-17T05:18:52.689Z,93.07
2022-12-17T05:19:52.659Z,94.08
2022-12-17T05:20:52.652Z,94.40
2022-12-17T05:21:53.511Z,94.29
2022-12-17T05:22:52.653Z,93.77
2022-12-17T05:23:52.650Z,93.24
2022-12-17T05:24:52.630Z,92.60
2022-12-17T05:25:52.656Z,92.92
2022-12-17T05:26:54.530Z,92.71
2022-12-17T05:27:52.604Z,92.35
2022-12-17T05:28:52.594Z,91.72
2022-12-17T05:29:52.582Z,90.67
2022-12-17T05:30:52.618Z,90.77
2022-12-17T05:31:52.566Z,89.51
2022-12-17T05:32:52.557Z,89.40
2022-12-17T05:33:52.552Z,89.51
2022-12-17T05:34:52.566Z,89.51
2022-12-17T05:35:52.537Z,88.92
2022-12-17T05:36:52.522Z,88.98
2022-12-17T05:37:52.518Z,90.03
2022-12-17T05:38:52.507Z,90.67
2022-12-17T05:39:52.502Z,91.30
2022-12-17T05:40:53.088Z,91.83
2022-12-17T05:41:52.484Z,92.46
2022-12-17T05:42:52.486Z,92.14
2022-12-17T05:43:52.469Z,92.67
2022-12-17T05:44:52.463Z,92.77
2022-12-17T05:45:52.457Z,93.05
2022-12-17T05:46:52.584Z,92.94
2022-12-17T05:47:52.526Z,93.05
2022-12-17T05:48:52.436Z,93.26
2022-12-17T05:49:52.435Z,93.05
2022-12-17T05:50:52.421Z,93.47
2022-12-17T05:51:52.417Z,93.11
2022-12-17T05:52:52.407Z,93.47
2022-12-17T05:53:52.392Z,93.15
2022-12-17T05:54:52.391Z,93.37
2022-12-17T05:55:52.374Z,93.26
2022-12-17T05:56:52.379Z,93.43
2022-12-17T05:57:56.398Z,93.43
2022-12-17T05:58:53.362Z,93.22
2022-12-17T05:59:52.347Z,93.11
2022-12-17T06:00:52.333Z,93.11
2022-12-17T06:01:53.439Z,92.80
2022-12-17T06:02:52.476Z,92.90
2022-12-17T06:03:52.425Z,92.58
2022-12-17T06:04:52.311Z,92.48
2022-12-17T06:05:52.315Z,92.69
2022-12-17T06:06:52.295Z,92.80
2022-12-17T06:07:52.288Z,92.48
2022-12-17T06:08:52.287Z,92.80
2022-12-17T06:09:52.270Z,92.58
2022-12-17T06:10:52.264Z,92.48
2022-12-17T06:11:52.253Z,92.90
2022-12-17T06:12:52.272Z,92.90
2022-12-17T06:13:52.244Z,92.90
2022-12-17T06:14:52.227Z,92.90
2022-12-17T06:15:52.283Z,92.58
2022-12-17T06:16:52.216Z,92.58
2022-12-17T06:17:52.245Z,92.65
2022-12-17T06:18:52.208Z,92.69
2022-12-17T06:19:52.194Z,92.58
2022-12-17T06:20:52.182Z,92.76
2022-12-17T06:21:52.170Z,92.69
2022-12-17T06:22:52.173Z,92.58
2022-12-17T06:23:52.161Z,92.65
2022-12-17T06:24:52.149Z,92.65
2022-12-17T06:25:52.155Z,92.54
2022-12-17T06:26:52.143Z,92.48
2022-12-17T06:27:52.156Z,92.44
2022-12-17T06:28:53.100Z,92.33
2022-12-17T06:29:52.128Z,92.23
2022-12-17T06:30:52.101Z,92.12
2022-12-17T06:31:52.153Z,92.12
2022-12-17T06:32:52.101Z,91.81
2022-12-17T06:33:53.012Z,91.81
2022-12-17T06:34:52.074Z,92.33
2022-12-17T06:35:52.058Z,91.60
2022-12-17T06:36:53.062Z,92.23
2022-12-17T06:37:52.043Z,92.33
2022-12-17T06:38:52.068Z,92.44
2022-12-17T06:39:52.047Z,92.44
2022-12-17T06:40:52.022Z,92.54
2022-12-17T06:41:52.010Z,92.44
2022-12-17T06:42:52.016Z,92.23
2022-12-17T06:43:51.998Z,92.23
2022-12-17T06:44:52.015Z,91.91
2022-12-17T06:45:51.980Z,92.02
2022-12-17T06:46:52.071Z,91.60
2022-12-17T06:47:51.983Z,92.16
2022-12-17T06:48:51.959Z,92.58
2022-12-17T06:49:55.427Z,93.01
2022-12-17T06:50:52.938Z,93.01
2022-12-17T06:51:51.945Z,93.15
2022-12-17T06:52:51.928Z,93.01
2022-12-17T06:53:51.922Z,93.01
2022-12-17T06:54:51.944Z,92.69
2022-12-17T06:55:51.941Z,93.01
2022-12-17T06:56:51.905Z,92.48
2022-12-17T06:57:51.887Z,92.90
2022-12-17T06:58:51.884Z,92.48
2022-12-17T06:59:51.880Z,92.84
2022-12-17T07:00:51.948Z,93.37
2022-12-17T07:01:52.025Z,93.47
2022-12-17T07:02:52.016Z,93.68
2022-12-17T07:03:51.849Z,93.47
2022-12-17T07:04:51.863Z,93.47
2022-12-17T07:05:51.822Z,93.68
2022-12-17T07:06:51.823Z,93.26
2022-12-17T07:07:51.806Z,93.53
2022-12-17T07:08:52.108Z,93.32
2022-12-17T07:09:51.793Z,93.05
2022-12-17T07:10:51.805Z,93.43
2022-12-17T07:11:52.575Z,93.32
2022-12-17T07:12:51.774Z,93.47
2022-12-17T07:13:51.772Z,93.43
2022-12-17T07:14:51.762Z,93.11
2022-12-17T07:15:51.763Z,93.32
2022-12-17T07:16:51.852Z,93.01
2022-12-17T07:17:51.766Z,93.01
2022-12-17T07:18:51.777Z,92.27
2022-12-17T07:19:51.736Z,92.48
2022-12-17T07:20:51.727Z,92.90
2022-12-17T07:21:51.703Z,93.11
2022-12-17T07:22:52.521Z,92.38
2022-12-17T07:23:51.682Z,92.48
2022-12-17T07:24:51.811Z,93.01
2022-12-17T07:25:51.681Z,93.37
2022-12-17T07:26:51.672Z,93.47
2022-12-17T07:27:51.709Z,93.43
2022-12-17T07:28:51.651Z,93.53
2022-12-17T07:29:51.648Z,93.32
2022-12-17T07:30:55.701Z,93.53
2022-12-17T07:31:52.719Z,93.01
2022-12-17T07:32:51.622Z,93.43
2022-12-17T07:33:51.639Z,93.53
2022-12-17T07:34:51.609Z,93.22
2022-12-17T07:35:51.615Z,93.11
2022-12-17T07:36:51.581Z,92.48
2022-12-17T07:37:51.587Z,92.90
2022-12-17T07:38:51.566Z,92.90
2022-12-17T07:39:51.559Z,93.05
2022-12-17T07:40:51.566Z,92.90
2022-12-17T07:41:51.545Z,93.01
2022-12-17T07:42:51.557Z,93.22
2022-12-17T07:43:53.427Z,93.11
2022-12-17T07:44:52.525Z,93.11
2022-12-17T07:45:51.551Z,93.01
2022-12-17T07:46:51.508Z,92.58
2022-12-17T07:47:51.503Z,92.27
2022-12-17T07:48:51.504Z,92.38
2022-12-17T07:49:51.481Z,92.58
2022-12-17T07:50:51.473Z,93.01
2022-12-17T07:51:52.091Z,92.52
2022-12-17T07:52:51.467Z,92.90
2022-12-17T07:53:51.450Z,92.90
2022-12-17T07:54:51.450Z,92.80
2022-12-17T07:55:51.437Z,92.63
2022-12-17T07:56:51.432Z,92.69
2022-12-17T07:57:51.420Z,92.63
2022-12-17T07:58:51.414Z,92.52
2022-12-17T07:59:51.405Z,93.26
2022-12-17T08:00:51.439Z,93.41
2022-12-17T08:01:51.617Z,93.73
2022-12-17T08:02:51.484Z,94.57
2022-12-17T08:03:51.377Z,94.53
2022-12-17T08:04:51.371Z,94.84
2022-12-17T08:05:51.363Z,94.42
2022-12-17T08:06:55.121Z,94.31
2022-12-17T08:07:52.344Z,93.95
2022-12-17T08:08:51.336Z,93.43
2022-12-17T08:09:51.326Z,93.15
2022-12-17T08:10:51.322Z,92.80
2022-12-17T08:11:51.320Z,92.38
2022-12-17T08:12:51.301Z,92.31
2022-12-17T08:13:51.305Z,92.84
2022-12-17T08:14:51.291Z,92.63
2022-12-17T08:15:51.284Z,92.94
2022-12-17T08:16:51.318Z,92.94
2022-12-17T08:17:51.264Z,93.05
2022-12-17T08:18:51.261Z,92.46
2022-12-17T08:19:51.248Z,93.26
2022-12-17T08:20:51.244Z,93.57
2022-12-17T08:21:51.233Z,93.01
2022-12-17T08:22:51.234Z,92.63
2022-12-17T08:23:51.224Z,92.16
2022-12-17T08:24:51.215Z,91.53
2022-12-17T08:25:51.207Z,91.11
2022-12-17T08:26:51.201Z,91.00
2022-12-17T08:27:51.189Z,91.00
2022-12-17T08:28:51.483Z,90.90
2022-12-17T08:29:51.177Z,90.48
2022-12-17T08:30:51.224Z,90.48
2022-12-17T08:31:51.168Z,90.69
2022-12-17T08:32:51.150Z,90.80
2022-12-17T08:33:51.158Z,91.00
2022-12-17T08:34:51.155Z,90.58
2022-12-17T08:35:51.143Z,90.48
2022-12-17T08:36:51.137Z,90.52
2022-12-17T08:37:51.131Z,90.88
2022-12-17T08:38:51.120Z,91.51
2022-12-17T08:39:51.124Z,92.25
2022-12-17T08:40:51.098Z,92.73
2022-12-17T08:41:54.497Z,92.63
2022-12-17T08:42:52.081Z,91.99
2022-12-17T08:43:51.083Z,91.05
2022-12-17T08:44:51.072Z,91.68
2022-12-17T08:45:51.117Z,90.80
2022-12-17T08:46:51.058Z,90.94
2022-12-17T08:47:51.038Z,90.80
2022-12-17T08:48:51.031Z,91.85
2022-12-17T08:49:51.028Z,91.42
2022-12-17T08:50:51.019Z,91.68
2022-12-17T08:51:51.012Z,91.30
2022-12-17T08:52:51.607Z,92.03
2022-12-17T08:53:50.992Z,91.99
2022-12-17T08:54:51.004Z,91.57
2022-12-17T08:55:50.985Z,91.99
2022-12-17T08:56:51.008Z,92.31
2022-12-17T08:57:51.015Z,91.99
2022-12-17T08:58:55.648Z,91.85
2022-12-17T08:59:52.948Z,92.27
2022-12-17T09:00:51.001Z,91.53
2022-12-17T09:01:51.092Z,90.80
2022-12-17T09:02:51.020Z,91.00
2022-12-17T09:03:50.923Z,90.90
2022-12-17T09:04:50.905Z,90.58
2022-12-17T09:05:50.896Z,90.73
2022-12-17T09:06:53.626Z,91.11
2022-12-17T09:07:51.532Z,90.65
2022-12-17T09:08:50.892Z,90.55
2022-12-17T09:09:50.872Z,90.12
2022-12-17T09:10:50.865Z,89.39
2022-12-17T09:11:50.879Z,89.07
2022-12-17T09:12:50.849Z,89.07
2022-12-17T09:13:50.846Z,89.28
2022-12-17T09:14:50.848Z,89.39
2022-12-17T09:15:50.837Z,89.17
2022-12-17T09:16:50.934Z,89.53
2022-12-17T09:17:50.808Z,89.59
2022-12-17T09:18:50.802Z,90.48
2022-12-17T09:19:50.792Z,90.37
2022-12-17T09:20:50.792Z,90.80
2022-12-17T09:21:50.771Z,90.65
2022-12-17T09:22:50.774Z,90.65
2022-12-17T09:23:50.760Z,89.76
2022-12-17T09:24:50.762Z,89.24
2022-12-17T09:25:56.491Z,88.60
2022-12-17T09:26:52.749Z,88.92
2022-12-17T09:27:50.728Z,89.03
2022-12-17T09:28:50.721Z,89.14
2022-12-17T09:29:50.721Z,90.01
2022-12-17T09:30:50.733Z,90.44
2022-12-17T09:31:50.698Z,90.55
2022-12-17T09:32:50.694Z,89.81
2022-12-17T09:33:50.695Z,90.44
2022-12-17T09:34:50.674Z,90.23
2022-12-17T09:35:50.664Z,89.70
2022-12-17T09:36:51.454Z,89.39
2022-12-17T09:37:51.648Z,88.58
2022-12-17T09:38:50.656Z,89.57
2022-12-17T09:39:50.645Z,89.57
2022-12-17T09:40:50.622Z,90.10
2022-12-17T09:41:50.609Z,89.93
2022-12-17T09:42:54.452Z,90.52
2022-12-17T09:43:52.594Z,90.62
2022-12-17T09:44:50.607Z,89.74
2022-12-17T09:45:50.613Z,88.90
2022-12-17T09:46:50.577Z,89.00
2022-12-17T09:47:50.568Z,88.79
2022-12-17T09:48:50.575Z,88.75
2022-12-17T09:49:50.552Z,88.65
2022-12-17T09:50:50.556Z,88.65
2022-12-17T09:51:50.531Z,88.96
2022-12-17T09:52:51.136Z,89.11
2022-12-17T09:53:50.532Z,88.44
2022-12-17T09:54:50.511Z,88.82
2022-12-17T09:55:50.532Z,88.18
2022-12-17T09:56:50.506Z,87.81
2022-12-17T09:57:50.490Z,87.76
2022-12-17T09:58:50.504Z,88.29
2022-12-17T09:59:50.476Z,87.98
2022-12-17T10:00:50.480Z,88.04
2022-12-17T10:01:50.567Z,87.52
2022-12-17T10:02:50.700Z,87.03
2022-12-17T10:03:50.504Z,88.46
2022-12-17T10:04:51.027Z,88.15
2022-12-17T10:05:50.430Z,87.03
2022-12-17T10:06:51.426Z,86.88
2022-12-17T10:07:50.428Z,86.15
2022-12-17T10:08:50.407Z,86.78
2022-12-17T10:09:50.413Z,86.88
2022-12-17T10:10:50.412Z,87.10
2022-12-17T10:11:50.396Z,86.99
2022-12-17T10:12:50.388Z,86.46
2022-12-17T10:13:50.373Z,86.25
2022-12-17T10:14:50.380Z,85.94
2022-12-17T10:15:50.419Z,85.58
2022-12-17T10:16:50.345Z,85.16
2022-12-17T10:17:50.367Z,85.16
2022-12-17T10:18:50.339Z,85.58
2022-12-17T10:19:50.329Z,85.16
2022-12-17T10:20:50.314Z,85.27
2022-12-17T10:21:50.321Z,85.16
2022-12-17T10:22:50.297Z,85.13
2022-12-17T10:23:50.295Z,84.64
2022-12-17T10:24:50.314Z,84.70
2022-12-17T10:25:50.284Z,84.91
2022-12-17T10:26:51.581Z,84.49
2022-12-17T10:27:50.267Z,84.49
2022-12-17T10:28:50.258Z,84.35
2022-12-17T10:29:50.263Z,84.49
2022-12-17T10:30:50.294Z,84.45
2022-12-17T10:31:50.244Z,84.39
2022-12-17T10:32:50.243Z,83.93
2022-12-17T10:33:50.214Z,84.14
2022-12-17T10:34:50.208Z,84.03
2022-12-17T10:35:50.227Z,83.61
2022-12-17T10:36:50.201Z,83.83
2022-12-17T10:37:50.189Z,83.40
2022-12-17T10:38:50.179Z,83.20
2022-12-17T10:39:50.199Z,83.09
2022-12-17T10:40:50.157Z,83.05
2022-12-17T10:41:50.154Z,83.05
2022-12-17T10:42:50.153Z,83.05
2022-12-17T10:43:50.139Z,82.46
2022-12-17T10:44:50.144Z,82.92
2022-12-17T10:45:50.128Z,83.13
2022-12-17T10:46:50.260Z,83.02
2022-12-17T10:47:51.041Z,83.02
2022-12-17T10:48:50.103Z,82.88
2022-12-17T10:49:50.090Z,82.78
2022-12-17T10:50:50.104Z,82.67
2022-12-17T10:51:50.081Z,82.67
2022-12-17T10:52:50.069Z,82.50
2022-12-17T10:53:50.060Z,81.55
2022-12-17T10:54:50.162Z,82.07
2022-12-17T10:55:50.041Z,82.85
2022-12-17T10:56:50.039Z,83.69
2022-12-17T10:57:50.032Z,84.01
2022-12-17T10:58:50.020Z,83.97
2022-12-17T10:59:50.036Z,83.76
2022-12-17T11:00:50.825Z,84.18
2022-12-17T11:01:51.117Z,83.97
2022-12-17T11:02:50.171Z,83.51
2022-12-17T11:03:50.086Z,82.98
2022-12-17T11:04:49.973Z,82.95
2022-12-17T11:05:52.818Z,83.05
2022-12-17T11:06:49.968Z,82.49
2022-12-17T11:07:49.948Z,81.86
2022-12-17T11:08:49.950Z,82.07
2022-12-17T11:09:49.944Z,81.54
2022-12-17T11:10:49.930Z,81.37
2022-12-17T11:11:49.915Z,81.02
2022-12-17T11:12:49.914Z,80.81
2022-12-17T11:13:49.905Z,80.49
2022-12-17T11:14:49.896Z,80.81
2022-12-17T11:15:49.999Z,81.27
2022-12-17T11:16:49.876Z,81.54
2022-12-17T11:17:49.900Z,81.23
2022-12-17T11:18:49.863Z,80.60
2022-12-17T11:19:49.875Z,80.71
2022-12-17T11:20:49.850Z,80.81
2022-12-17T11:21:49.844Z,81.02
2022-12-17T11:22:49.830Z,81.16
2022-12-17T11:23:49.825Z,81.90
2022-12-17T11:24:49.828Z,82.32
2022-12-17T11:25:49.818Z,82.14
2022-12-17T11:26:49.798Z,82.88
2022-12-17T11:27:49.807Z,82.88
2022-12-17T11:28:49.790Z,82.56
2022-12-17T11:29:49.807Z,82.67
2022-12-17T11:30:56.079Z,82.50
2022-12-17T11:31:49.770Z,82.25
2022-12-17T11:32:49.763Z,82.35
2022-12-17T11:33:49.764Z,82.32
2022-12-17T11:34:49.739Z,82.53
2022-12-17T11:35:50.136Z,82.74
2022-12-17T11:36:49.732Z,81.37
2022-12-17T11:37:49.723Z,80.99
2022-12-17T11:38:49.728Z,81.27
2022-12-17T11:39:50.544Z,82.21
2022-12-17T11:40:50.634Z,82.25
2022-12-17T11:41:49.694Z,82.78
2022-12-17T11:42:49.677Z,82.46
2022-12-17T11:43:50.548Z,82.63
2022-12-17T11:44:50.666Z,82.21
2022-12-17T11:45:49.648Z,82.04
2022-12-17T11:46:49.661Z,82.10
2022-12-17T11:47:53.679Z,82.10
2022-12-17T11:48:50.657Z,82.35
2022-12-17T11:49:50.645Z,81.90
2022-12-17T11:50:49.612Z,82.10
2022-12-17T11:51:50.544Z,81.79
2022-12-17T11:52:49.609Z,81.76
2022-12-17T11:53:49.588Z,81.76
2022-12-17T11:54:49.591Z,81.96
2022-12-17T11:55:49.580Z,82.07
2022-12-17T11:56:49.573Z,81.23
2022-12-17T11:57:49.569Z,80.71
2022-12-17T11:58:49.544Z,80.91
2022-12-17T11:59:54.221Z,80.71
2022-12-17T12:00:51.535Z,80.39
2022-12-17T12:01:49.625Z,80.18
2022-12-17T12:02:49.606Z,80.81
2022-12-17T12:03:49.680Z,80.57
2022-12-17T12:04:49.510Z,80.49
2022-12-17T12:05:54.893Z,80.46
2022-12-17T12:06:51.496Z,79.97
2022-12-17T12:07:49.476Z,80.32
2022-12-17T12:08:49.481Z,80.95
2022-12-17T12:09:50.044Z,81.16
2022-12-17T12:10:49.453Z,81.69
2022-12-17T12:11:49.451Z,81.93
2022-12-17T12:12:50.046Z,81.93
2022-12-17T12:13:49.430Z,81.69
2022-12-17T12:14:49.438Z,81.16
2022-12-17T12:15:49.455Z,82.10
2022-12-17T12:16:49.479Z,82.10
2022-12-17T12:17:49.403Z,82.21
2022-12-17T12:18:49.412Z,81.93
2022-12-17T12:19:49.400Z,81.93
2022-12-17T12:20:49.382Z,81.93
2022-12-17T12:21:49.369Z,82.25
2022-12-17T12:22:49.362Z,82.46
2022-12-17T12:23:49.384Z,82.46
2022-12-17T12:24:49.349Z,82.42
2022-12-17T12:25:49.343Z,82.00
2022-12-17T12:26:49.347Z,82.32
2022-12-17T12:27:49.325Z,81.86
2022-12-17T12:28:49.353Z,81.86
2022-12-17T12:29:49.319Z,81.65
2022-12-17T12:30:49.303Z,81.90
2022-12-17T12:31:49.326Z,82.32
2022-12-17T12:32:49.286Z,81.90
2022-12-17T12:33:49.282Z,82.56
2022-12-17T12:34:49.269Z,82.56
2022-12-17T12:35:49.271Z,82.67
2022-12-17T12:36:49.271Z,83.54
2022-12-17T12:38:59.259Z,84.28
2022-12-17T12:39:56.111Z,84.49
2022-12-17T12:40:56.094Z,83.86
2022-12-17T12:41:56.084Z,83.86
2022-12-17T12:42:56.077Z,83.97
2022-12-17T12:43:57.175Z,84.01
2022-12-17T12:44:57.156Z,84.64
2022-12-17T12:45:57.209Z,85.37
2022-12-17T12:46:57.143Z,85.27
2022-12-17T12:47:57.142Z,85.20
2022-12-17T12:48:57.118Z,85.73
2022-12-17T12:49:57.109Z,85.69
2022-12-17T12:50:57.105Z,85.58
2022-12-17T12:51:57.101Z,85.27
2022-12-17T12:52:57.096Z,84.95
2022-12-17T12:53:57.079Z,85.06
2022-12-17T12:54:57.841Z,85.06